createdAt,value
2023-02-26T00:00:37.891Z,96004.69
2023-02-26T00:03:06.159Z,96000.28
2023-02-26T00:05:34.327Z,95999.44
2023-02-26T00:08:05.948Z,95993.22
2023-02-26T00:10:34.272Z,95983.28
2023-02-26T00:13:03.341Z,95990.66
2023-02-26T00:15:32.296Z,95993.50
2023-02-26T00:18:02.337Z,96003.28
2023-02-26T00:20:31.123Z,96004.25
2023-02-26T00:22:59.977Z,96022.09
2023-02-26T00:25:29.620Z,96023.06
2023-02-26T00:27:58.279Z,96021.38
2023-02-26T00:30:27.117Z,96018.81
2023-02-26T00:32:55.757Z,96025.91
2023-02-26T00:35:25.676Z,96018.81
2023-02-26T00:38:00.545Z,96008.19
2023-02-26T00:40:42.875Z,96009.91
2023-02-26T00:43:14.345Z,96013.59
2023-02-26T00:45:43.662Z,96017.28
2023-02-26T00:48:22.485Z,96015.56
2023-02-26T00:50:54.628Z,96005.81
2023-02-26T00:53:24.066Z,96003.13
2023-02-26T00:55:53.994Z,96002.25
2023-02-26T00:58:22.633Z,95995.06
2023-02-26T01:00:50.767Z,95995.16
2023-02-26T01:03:19.508Z,96010.47
2023-02-26T01:05:48.280Z,95999.72
2023-02-26T01:08:18.713Z,95999.72
2023-02-26T01:10:47.327Z,95993.47
2023-02-26T01:13:17.218Z,95997.16
2023-02-26T01:15:48.466Z,95990.94
2023-02-26T01:18:20.069Z,95991.91
2023-02-26T01:20:49.786Z,95980.19
2023-02-26T01:23:19.317Z,95984.69
2023-02-26T01:25:50.085Z,95985.69
2023-02-26T01:28:20.451Z,95989.22
2023-02-26T01:30:49.793Z,95988.38
2023-02-26T01:33:20.871Z,95988.50
2023-02-26T01:35:50.192Z,96006.47
2023-02-26T01:38:22.305Z,96003.78
2023-02-26T01:41:28.663Z,96001.97
2023-02-26T01:44:22.144Z,95994.03
2023-02-26T01:47:10.684Z,95983.44
2023-02-26T01:49:39.466Z,95966.44
2023-02-26T01:52:08.354Z,95972.69
2023-02-26T01:54:37.290Z,95986.13
2023-02-26T01:57:07.276Z,95985.25
2023-02-26T01:59:38.765Z,95998.84
2023-02-26T02:02:09.049Z,96006.06
2023-02-26T02:04:37.811Z,96007.19
2023-02-26T02:07:06.136Z,96015.25
2023-02-26T02:09:34.882Z,96018.06
2023-02-26T02:12:10.520Z,96010.00
2023-02-26T02:14:45.215Z,96018.06
2023-02-26T02:17:15.631Z,96014.53
2023-02-26T02:20:12.413Z,96018.06
2023-02-26T02:22:55.945Z,96021.75
2023-02-26T02:26:01.060Z,96015.66
2023-02-26T02:28:36.613Z,96013.81
2023-02-26T02:31:08.351Z,96005.75
2023-02-26T02:33:40.346Z,96001.38
2023-02-26T02:36:10.692Z,96015.66
2023-02-26T02:38:41.292Z,96011.28
2023-02-26T02:41:12.729Z,96013.97
2023-02-26T02:43:40.992Z,96026.53
2023-02-26T02:46:12.731Z,96013.09
2023-02-26T02:48:42.333Z,96006.88
2023-02-26T02:51:13.492Z,96023.00
2023-02-26T02:53:45.339Z,96027.56
2023-02-26T02:56:25.844Z,96033.91
2023-02-26T02:59:12.040Z,96043.75
2023-02-26T03:01:41.937Z,96042.81
2023-02-26T03:04:11.496Z,96044.66
2023-02-26T03:06:39.875Z,96052.81
2023-02-26T03:09:09.071Z,96053.69
2023-02-26T03:11:37.314Z,96060.03
2023-02-26T03:14:06.457Z,96061.88
2023-02-26T03:16:58.444Z,96067.25
2023-02-26T03:19:30.588Z,96077.16
2023-02-26T03:22:04.240Z,96073.63
2023-02-26T03:24:59.211Z,96075.44
2023-02-26T03:27:30.313Z,96093.41
2023-02-26T03:30:00.330Z,96092.59
2023-02-26T03:32:31.542Z,96099.78
2023-02-26T03:35:01.976Z,96100.66
2023-02-26T03:37:33.476Z,96099.78
2023-02-26T03:40:05.311Z,96099.78
2023-02-26T03:42:37.493Z,96094.56
2023-02-26T03:45:09.599Z,96094.56
2023-02-26T03:47:40.284Z,96101.75
2023-02-26T03:50:10.228Z,96108.97
2023-02-26T03:52:49.968Z,96079.41
2023-02-26T03:55:40.852Z,96061.59
2023-02-26T03:58:28.439Z,96072.34
2023-02-26T04:01:24.485Z,96089.44
2023-02-26T04:03:56.891Z,96094.81
2023-02-26T04:06:25.448Z,96100.19
2023-02-26T04:08:53.728Z,96096.63
2023-02-26T04:11:22.833Z,96102.16
2023-02-26T04:13:51.170Z,96111.06
2023-02-26T04:16:20.147Z,96115.59
2023-02-26T04:18:48.394Z,96114.72
2023-02-26T04:21:20.217Z,96121.97
2023-02-26T04:23:49.172Z,96114.72
2023-02-26T04:26:17.357Z,96122.94
2023-02-26T04:28:47.090Z,96120.25
2023-02-26T04:31:15.911Z,96127.50
2023-02-26T04:33:44.312Z,96122.13
2023-02-26T04:36:12.853Z,96133.69
2023-02-26T04:38:42.379Z,96141.91
2023-02-26T04:41:10.595Z,96144.59
2023-02-26T04:43:39.120Z,96143.72
2023-02-26T04:46:21.285Z,96148.28
2023-02-26T04:48:49.610Z,96161.72
2023-02-26T04:51:18.235Z,96161.72
2023-02-26T04:53:48.231Z,96154.63
2023-02-26T04:56:16.512Z,96161.81
2023-02-26T04:58:46.040Z,96170.75
2023-02-26T05:01:19.158Z,96167.19
2023-02-26T05:03:47.479Z,96172.56
2023-02-26T05:06:16.019Z,96176.25
2023-02-26T05:08:44.398Z,96172.72
2023-02-26T05:11:14.035Z,96161.97
2023-02-26T05:13:42.346Z,96161.97
2023-02-26T05:16:10.675Z,96162.09
2023-02-26T05:18:39.048Z,96183.59
2023-02-26T05:21:07.582Z,96182.75
2023-02-26T05:23:35.933Z,96187.25
2023-02-26T05:26:04.141Z,96187.25
2023-02-26T05:28:36.665Z,96195.31
2023-02-26T05:31:04.987Z,96194.50
2023-02-26T05:33:33.079Z,96198.16
2023-02-26T05:36:01.290Z,96190.09
2023-02-26T05:38:29.438Z,96194.59
2023-02-26T05:40:58.648Z,96197.28
2023-02-26T05:43:27.125Z,96200.97
2023-02-26T05:45:56.913Z,96206.34
2023-02-26T05:48:25.150Z,96195.59
2023-02-26T05:50:53.418Z,96201.94
2023-02-26T05:53:21.786Z,96201.94
2023-02-26T05:55:50.540Z,96206.34
2023-02-26T05:58:18.762Z,96211.88
2023-02-26T06:00:46.938Z,96209.19
2023-02-26T06:03:16.665Z,96205.63
2023-02-26T06:05:44.862Z,96213.69
2023-02-26T06:08:15.679Z,96218.06
2023-02-26T06:10:44.022Z,96224.28
2023-02-26T06:13:12.300Z,96218.91
2023-02-26T06:15:40.557Z,96228.72
2023-02-26T06:18:09.005Z,96246.66
2023-02-26T06:20:38.840Z,96248.47
2023-02-26T06:23:07.019Z,96242.25
2023-02-26T06:25:35.183Z,96253.00
2023-02-26T06:28:03.362Z,96253.84
2023-02-26T06:30:31.862Z,96247.63
2023-02-26T06:33:00.081Z,96243.97
2023-02-26T06:35:30.364Z,96247.53
2023-02-26T06:38:00.106Z,96259.09
2023-02-26T06:40:39.873Z,96259.09
2023-02-26T06:43:08.202Z,96250.19
2023-02-26T06:45:36.405Z,96262.78
2023-02-26T06:48:04.773Z,96265.47
2023-02-26T06:50:32.992Z,96278.19
2023-02-26T06:53:02.650Z,96280.72
2023-02-26T06:55:30.771Z,96277.19
2023-02-26T06:57:59.008Z,96276.47
2023-02-26T07:00:27.264Z,96287.94
2023-02-26T07:02:55.515Z,96287.22
2023-02-26T07:05:24.206Z,96280.16
2023-02-26T07:07:52.404Z,96288.06
2023-02-26T07:10:22.604Z,96288.94
2023-02-26T07:12:50.786Z,96292.47
2023-02-26T07:15:18.972Z,96289.66
2023-02-26T07:17:47.144Z,96293.94
2023-02-26T07:20:15.415Z,96292.06
2023-02-26T07:22:44.046Z,96298.31
2023-02-26T07:25:12.399Z,96301.84
2023-02-26T07:27:43.801Z,96299.16
2023-02-26T07:30:13.182Z,96288.41
2023-02-26T07:32:41.356Z,96301.72
2023-02-26T07:35:10.389Z,96307.94
2023-02-26T07:37:39.469Z,96309.63
2023-02-26T07:40:08.726Z,96305.25
2023-02-26T07:42:36.887Z,96316.00
2023-02-26T07:45:08.209Z,96310.63
2023-02-26T07:47:36.536Z,96316.00
2023-02-26T07:50:05.066Z,96313.19
2023-02-26T07:52:33.203Z,96310.50
2023-02-26T07:55:01.412Z,96322.13
2023-02-26T07:57:29.533Z,96327.50
2023-02-26T07:59:57.683Z,96323.09
2023-02-26T08:02:27.340Z,96322.13
2023-02-26T08:04:55.528Z,96319.44
2023-02-26T08:07:23.673Z,96317.59
2023-02-26T08:09:51.814Z,96320.53
2023-02-26T08:12:20.050Z,96326.75
2023-02-26T08:14:48.441Z,96323.22
2023-02-26T08:17:16.652Z,96325.75
2023-02-26T08:19:46.191Z,96319.56
2023-02-26T08:22:14.296Z,96314.19
2023-02-26T08:24:42.955Z,96313.19
2023-02-26T08:27:12.685Z,96314.91
2023-02-26T08:29:41.763Z,96325.75
2023-02-26T08:32:10.552Z,96336.53
2023-02-26T08:34:38.995Z,96336.53
2023-02-26T08:37:11.740Z,96342.88
2023-02-26T08:39:40.041Z,96343.63
2023-02-26T08:42:08.541Z,96347.28
2023-02-26T08:44:36.876Z,96360.72
2023-02-26T08:47:05.197Z,96365.13
2023-02-26T08:49:33.419Z,96375.00
2023-02-26T08:52:01.820Z,96375.88
2023-02-26T08:54:31.459Z,96392.97
2023-02-26T08:57:00.058Z,96393.81
2023-02-26T08:59:28.237Z,96401.03
2023-02-26T09:01:56.530Z,96401.03
2023-02-26T09:04:24.636Z,96397.50
2023-02-26T09:06:52.866Z,96413.63
2023-02-26T09:09:21.161Z,96406.41
2023-02-26T09:11:50.830Z,96406.41
2023-02-26T09:14:19.008Z,96404.56
2023-02-26T09:16:48.909Z,96413.50
2023-02-26T09:19:19.052Z,96409.09
2023-02-26T09:21:47.161Z,96415.31
2023-02-26T09:24:15.397Z,96428.75
2023-02-26T09:26:43.797Z,96430.59
2023-02-26T09:29:14.564Z,96430.59
2023-02-26T09:31:42.825Z,96439.50
2023-02-26T09:34:11.643Z,96439.50
2023-02-26T09:36:39.923Z,96439.50
2023-02-26T09:39:08.864Z,96438.66
2023-02-26T09:41:39.668Z,96445.75
2023-02-26T09:44:22.405Z,96449.41
2023-02-26T09:46:55.262Z,96448.56
2023-02-26T09:49:28.575Z,96446.72
2023-02-26T09:51:58.539Z,96444.03
2023-02-26T09:54:27.961Z,96452.09
2023-02-26T09:56:58.424Z,96462.84
2023-02-26T09:59:28.668Z,96459.19
2023-02-26T10:01:59.829Z,96456.50
2023-02-26T10:04:45.673Z,96452.94
2023-02-26T10:07:18.219Z,96472.63
2023-02-26T10:09:56.265Z,96475.31
2023-02-26T10:12:26.114Z,96467.25
2023-02-26T10:14:57.037Z,96462.75
2023-02-26T10:17:30.165Z,96470.81
2023-02-26T10:20:10.296Z,96478.00
2023-02-26T10:22:42.077Z,96485.94
2023-02-26T10:25:12.608Z,96473.50
2023-02-26T10:27:50.351Z,96480.69
2023-02-26T10:30:23.591Z,96481.66
2023-02-26T10:32:56.819Z,96473.59
2023-02-26T10:35:26.198Z,96466.53
2023-02-26T10:37:56.504Z,96481.66
2023-02-26T10:40:27.922Z,96479.84
2023-02-26T10:42:58.282Z,96474.47
2023-02-26T10:45:34.740Z,96490.44
2023-02-26T10:48:22.232Z,96503.06
2023-02-26T10:50:51.401Z,96495.72
2023-02-26T10:53:19.550Z,96503.78
2023-02-26T10:55:48.582Z,96513.56
2023-02-26T10:58:18.360Z,96509.88
2023-02-26T11:00:50.174Z,96509.88
2023-02-26T11:03:20.615Z,96504.50
2023-02-26T11:05:49.379Z,96497.28
2023-02-26T11:08:19.489Z,96484.84
2023-02-26T11:10:50.147Z,96481.16
2023-02-26T11:13:18.366Z,96486.53
2023-02-26T11:15:50.015Z,96491.03
2023-02-26T11:18:20.823Z,96497.41
2023-02-26T11:20:49.091Z,96496.41
2023-02-26T11:23:19.944Z,96492.03
2023-02-26T11:25:48.200Z,96498.28
2023-02-26T11:28:22.027Z,96495.59
2023-02-26T11:30:54.500Z,96495.59
2023-02-26T11:33:29.031Z,96496.41
2023-02-26T11:35:58.128Z,96489.22
2023-02-26T11:38:27.243Z,96493.63
2023-02-26T11:40:57.200Z,96491.78
2023-02-26T11:43:28.038Z,96491.78
2023-02-26T11:46:00.868Z,96501.56
2023-02-26T11:48:30.685Z,96494.38
2023-02-26T11:51:00.354Z,96494.38
2023-02-26T11:53:32.482Z,96489.81
2023-02-26T11:56:03.822Z,96489.00
2023-02-26T11:58:36.425Z,96492.50
2023-02-26T12:01:06.432Z,96505.94
2023-02-26T12:03:35.318Z,96497.78
2023-02-26T12:06:04.560Z,96494.22
2023-02-26T12:08:38.374Z,96506.69
2023-02-26T12:11:28.413Z,96501.31
2023-02-26T12:14:03.320Z,96500.47
2023-02-26T12:16:36.619Z,96507.69
2023-02-26T12:19:07.524Z,96527.34
2023-02-26T12:21:51.848Z,96530.03
2023-02-26T12:24:59.135Z,96533.56
2023-02-26T12:27:32.041Z,96534.44
2023-02-26T12:30:23.330Z,96537.13
2023-02-26T12:33:12.853Z,96555.94
2023-02-26T12:35:45.344Z,96547.88
2023-02-26T12:38:21.459Z,96547.88
2023-02-26T12:41:08.309Z,96559.47
2023-02-26T12:43:40.425Z,96562.16
2023-02-26T12:46:13.227Z,96564.72
2023-02-26T12:49:07.725Z,96559.34
2023-02-26T12:51:43.879Z,96561.91
2023-02-26T12:54:23.859Z,96568.16
2023-02-26T12:57:40.866Z,96567.19
2023-02-26T13:00:18.261Z,96576.00
2023-02-26T13:03:34.438Z,96570.69
2023-02-26T13:06:24.756Z,96569.78
2023-02-26T13:08:56.357Z,96581.25
2023-02-26T13:11:29.959Z,96568.78
2023-02-26T13:14:05.997Z,96575.88
2023-02-26T13:16:40.033Z,96578.44
2023-02-26T13:19:16.024Z,96580.16
2023-02-26T13:21:48.287Z,96573.78
2023-02-26T13:24:17.852Z,96579.16
2023-02-26T13:26:46.145Z,96597.03
2023-02-26T13:29:16.865Z,96594.22
2023-02-26T13:31:46.343Z,96594.22
2023-02-26T13:34:17.223Z,96601.28
2023-02-26T13:36:46.909Z,96601.28
2023-02-26T13:39:36.256Z,96609.25
2023-02-26T13:42:08.053Z,96606.56
2023-02-26T13:44:40.049Z,96605.69
2023-02-26T13:47:20.924Z,96609.13
2023-02-26T13:49:54.786Z,96610.81
2023-02-26T13:52:29.076Z,96611.69
2023-02-26T13:54:59.358Z,96603.59
2023-02-26T13:57:36.139Z,96616.09
2023-02-26T14:00:13.320Z,96608.03
2023-02-26T14:02:53.294Z,96610.59
2023-02-26T14:05:36.072Z,96617.66
2023-02-26T14:08:39.382Z,96617.66
2023-02-26T14:11:48.553Z,96621.22
2023-02-26T14:14:38.213Z,96624.75
2023-02-26T14:17:31.861Z,96633.69
2023-02-26T14:20:25.257Z,96630.00
2023-02-26T14:22:55.698Z,96632.69
2023-02-26T14:25:33.145Z,96630.00
2023-02-26T14:28:36.037Z,96631.72
2023-02-26T14:31:19.865Z,96626.34
2023-02-26T14:33:50.465Z,96634.44
2023-02-26T14:36:21.748Z,96636.13
2023-02-26T14:38:50.305Z,96636.13
2023-02-26T14:41:27.386Z,96637.84
2023-02-26T14:44:00.624Z,96644.19
2023-02-26T14:46:29.059Z,96637.84
2023-02-26T14:48:57.763Z,96646.75
2023-02-26T14:51:31.219Z,96650.31
2023-02-26T14:54:09.795Z,96646.75
2023-02-26T14:56:53.560Z,96657.78
2023-02-26T14:59:30.140Z,96664.75
2023-02-26T15:02:03.318Z,96677.06
2023-02-26T15:04:53.348Z,96681.34
2023-02-26T15:07:29.484Z,96681.22
2023-02-26T15:10:09.813Z,96682.81
2023-02-26T15:12:45.401Z,96687.25
2023-02-26T15:15:30.476Z,96696.03
2023-02-26T15:18:17.652Z,96693.22
2023-02-26T15:20:50.170Z,96702.03
2023-02-26T15:23:38.278Z,96701.03
2023-02-26T15:26:07.000Z,96700.94
2023-02-26T15:28:38.109Z,96705.31
2023-02-26T15:31:06.916Z,96706.19
2023-02-26T15:33:35.473Z,96708.88
2023-02-26T15:36:07.659Z,96708.88
2023-02-26T15:38:41.753Z,96701.88
2023-02-26T15:41:09.874Z,96719.13
2023-02-26T15:43:39.521Z,96721.81
2023-02-26T15:46:08.098Z,96723.41
2023-02-26T15:48:38.651Z,96718.03
2023-02-26T15:51:07.968Z,96719.75
2023-02-26T15:53:38.005Z,96718.78
2023-02-26T15:56:07.447Z,96726.59
2023-02-26T15:58:37.862Z,96738.34
2023-02-26T16:01:07.536Z,96739.06
2023-02-26T16:03:38.725Z,96737.25
2023-02-26T16:06:08.837Z,96737.13
2023-02-26T16:08:37.031Z,96741.53
2023-02-26T16:11:06.257Z,96749.69
2023-02-26T16:13:37.820Z,96754.25
2023-02-26T16:16:10.067Z,96761.59
2023-02-26T16:18:38.418Z,96766.34
2023-02-26T16:21:07.711Z,96770.03
2023-02-26T16:23:42.051Z,96777.34
2023-02-26T16:26:10.856Z,96773.81
2023-02-26T16:28:45.597Z,96774.78
2023-02-26T16:31:19.346Z,96778.44
2023-02-26T16:33:58.757Z,96787.50
2023-02-26T16:36:28.856Z,96797.41
2023-02-26T16:39:11.846Z,96801.91
2023-02-26T16:41:40.955Z,96812.81
2023-02-26T16:44:46.052Z,96809.25
2023-02-26T16:47:15.946Z,96812.94
2023-02-26T16:49:44.110Z,96806.69
2023-02-26T16:52:17.205Z,96823.69
2023-02-26T16:54:45.716Z,96829.09
2023-02-26T16:57:16.185Z,96832.72
2023-02-26T16:59:44.474Z,96828.34
2023-02-26T17:02:15.638Z,96835.56
2023-02-26T17:04:43.784Z,96847.19
2023-02-26T17:07:18.795Z,96849.00
2023-02-26T17:09:49.480Z,96844.59
2023-02-26T17:12:18.503Z,96853.66
2023-02-26T17:14:48.058Z,96849.22
2023-02-26T17:17:18.317Z,96858.16
2023-02-26T17:19:46.476Z,96865.34
2023-02-26T17:22:18.749Z,96872.59
2023-02-26T17:24:47.598Z,96865.50
2023-02-26T17:27:18.210Z,96874.41
2023-02-26T17:29:47.270Z,96870.00
2023-02-26T17:32:21.856Z,96873.56
2023-02-26T17:34:50.264Z,96880.75
2023-02-26T17:37:18.396Z,96886.16
2023-02-26T17:39:46.640Z,96888.97
2023-02-26T17:42:16.564Z,96882.72
2023-02-26T17:44:44.981Z,96882.72
2023-02-26T17:47:14.537Z,96890.78
2023-02-26T17:49:44.271Z,96897.03
2023-02-26T17:52:12.494Z,96899.72
2023-02-26T17:54:40.753Z,96901.44
2023-02-26T17:57:09.381Z,96905.09
2023-02-26T17:59:37.727Z,96900.59
2023-02-26T18:02:13.231Z,96904.13
2023-02-26T18:04:41.718Z,96906.81
2023-02-26T18:07:15.968Z,96913.91
2023-02-26T18:09:44.538Z,96918.41
2023-02-26T18:12:14.023Z,96915.84
2023-02-26T18:14:42.260Z,96917.59
2023-02-26T18:17:14.672Z,96915.72
2023-02-26T18:19:43.044Z,96918.41
2023-02-26T18:22:14.749Z,96920.28
2023-02-26T18:24:43.092Z,96921.09
2023-02-26T18:27:14.360Z,96920.28
2023-02-26T18:29:42.581Z,96923.81
2023-02-26T18:32:13.669Z,96923.81
2023-02-26T18:34:42.045Z,96930.03
2023-02-26T18:37:13.357Z,96921.09
2023-02-26T18:39:41.669Z,96925.53
2023-02-26T18:42:13.009Z,96926.41
2023-02-26T18:44:41.239Z,96937.16
2023-02-26T18:47:10.484Z,96932.63
2023-02-26T18:49:38.657Z,96934.34
2023-02-26T18:52:06.748Z,96933.34
2023-02-26T18:54:37.048Z,96922.59
2023-02-26T18:57:05.413Z,96931.53
2023-02-26T18:59:34.429Z,96934.22
2023-02-26T19:02:03.247Z,96939.59
2023-02-26T19:04:31.738Z,96941.34
2023-02-26T19:06:59.949Z,96934.09
2023-02-26T19:09:28.907Z,96933.25
2023-02-26T19:11:58.550Z,96941.22
2023-02-26T19:14:26.740Z,96939.25
2023-02-26T19:16:54.969Z,96943.78
2023-02-26T19:19:23.148Z,96948.19
2023-02-26T19:21:51.404Z,96947.31
2023-02-26T19:24:19.664Z,96948.06
2023-02-26T19:26:47.796Z,96946.34
2023-02-26T19:29:18.321Z,96955.28
2023-02-26T19:31:46.777Z,96957.09
2023-02-26T19:34:15.148Z,96973.25
2023-02-26T19:36:48.509Z,96970.47
2023-02-26T19:39:17.318Z,96979.28
2023-02-26T19:41:45.844Z,96974.63
2023-02-26T19:44:13.955Z,96985.28
2023-02-26T19:46:43.617Z,96988.69
2023-02-26T19:49:11.917Z,96984.06
2023-02-26T19:51:40.011Z,96993.84
2023-02-26T19:54:08.088Z,97001.81
2023-02-26T19:56:36.479Z,97003.53
2023-02-26T19:59:04.751Z,97008.78
2023-02-26T20:01:33.042Z,97002.44
2023-02-26T20:04:02.763Z,97015.03
2023-02-26T20:06:30.884Z,97008.69
2023-02-26T20:08:59.211Z,97014.91
2023-02-26T20:11:27.607Z,97021.16
2023-02-26T20:13:55.928Z,97025.56
2023-02-26T20:16:24.033Z,97027.41
2023-02-26T20:18:52.152Z,97024.72
2023-02-26T20:21:22.325Z,97036.34
2023-02-26T20:23:50.494Z,97034.59
2023-02-26T20:26:18.712Z,97045.25
2023-02-26T20:28:46.860Z,97043.41
2023-02-26T20:31:15.095Z,97045.25
2023-02-26T20:33:44.564Z,97062.25
2023-02-26T20:36:12.960Z,97049.78
2023-02-26T20:38:42.955Z,97058.72
2023-02-26T20:41:11.158Z,97070.34
2023-02-26T20:43:39.359Z,97060.56
2023-02-26T20:46:07.578Z,97064.09
2023-02-26T20:48:40.403Z,97064.94
2023-02-26T20:51:10.044Z,97069.47
2023-02-26T20:53:38.220Z,97067.66
2023-02-26T20:56:09.088Z,97066.78
2023-02-26T20:58:38.409Z,97064.94
2023-02-26T21:01:06.634Z,97075.72
2023-02-26T21:03:34.772Z,97080.22
2023-02-26T21:06:02.876Z,97083.78
2023-02-26T21:08:31.048Z,97089.19
2023-02-26T21:10:59.216Z,97094.56
2023-02-26T21:13:28.644Z,97101.75
2023-02-26T21:15:57.414Z,97101.75
2023-02-26T21:18:25.544Z,97105.31
2023-02-26T21:20:53.694Z,97108.00
2023-02-26T21:23:21.914Z,97110.72
2023-02-26T21:25:50.081Z,97113.41
2023-02-26T21:28:18.094Z,97113.41
2023-02-26T21:30:47.657Z,97118.78
2023-02-26T21:33:15.844Z,97114.25
2023-02-26T21:35:44.018Z,97116.09
2023-02-26T21:38:12.437Z,97113.53
2023-02-26T21:40:40.587Z,97119.78
2023-02-26T21:43:10.673Z,97110.72
2023-02-26T21:45:38.862Z,97116.09
2023-02-26T21:48:08.493Z,97118.78
2023-02-26T21:50:36.689Z,97121.59
2023-02-26T21:53:04.883Z,97131.38
2023-02-26T21:55:33.095Z,97131.50
2023-02-26T21:58:02.137Z,97131.50
2023-02-26T22:00:30.341Z,97143.25
2023-02-26T22:02:58.473Z,97139.56
2023-02-26T22:05:28.052Z,97139.56
2023-02-26T22:07:56.356Z,97145.81
2023-02-26T22:10:24.531Z,97136.88
2023-02-26T22:12:52.726Z,97135.06
2023-02-26T22:15:21.334Z,97136.75
2023-02-26T22:17:49.485Z,97144.00
2023-02-26T22:20:17.888Z,97146.78
2023-02-26T22:22:47.465Z,97160.22
2023-02-26T22:25:15.583Z,97143.25
2023-02-26T22:27:43.747Z,97149.59
2023-02-26T22:30:13.112Z,97153.16
2023-02-26T22:32:41.379Z,97154.09
2023-02-26T22:35:11.082Z,97161.34
2023-02-26T22:37:39.245Z,97163.16
2023-02-26T22:40:10.020Z,97165.00
2023-02-26T22:42:38.292Z,97158.72
2023-02-26T22:45:07.411Z,97168.66
2023-02-26T22:47:35.676Z,97170.50
2023-02-26T22:50:03.956Z,97167.91
2023-02-26T22:52:32.198Z,97170.69
2023-02-26T22:55:00.386Z,97175.13
2023-02-26T22:57:30.041Z,97187.84
2023-02-26T22:59:58.415Z,97180.72
2023-02-26T23:02:26.711Z,97189.66
2023-02-26T23:04:55.043Z,97186.97
2023-02-26T23:07:23.569Z,97187.94
2023-02-26T23:09:52.559Z,97187.19
2023-02-26T23:12:20.663Z,97192.59
2023-02-26T23:14:50.255Z,97180.94
2023-02-26T23:17:18.434Z,97187.19
2023-02-26T23:19:46.688Z,97193.53
2023-02-26T23:22:14.796Z,97197.22
2023-02-26T23:24:43.055Z,97197.22
2023-02-26T23:27:11.540Z,97211.63
2023-02-26T23:29:39.735Z,97209.81
2023-02-26T23:32:09.352Z,97219.81
2023-02-26T23:34:37.566Z,97218.00
2023-02-26T23:37:05.631Z,97219.94
2023-02-26T23:39:33.872Z,97225.31
2023-02-26T23:42:02.131Z,97222.63
2023-02-26T23:44:30.522Z,97235.22
2023-02-26T23:46:58.595Z,97234.34
2023-02-26T23:49:28.203Z,97228.22
2023-02-26T23:51:56.411Z,97230.03
2023-02-26T23:54:24.696Z,97239.97
2023-02-26T23:56:52.755Z,97238.22
2023-02-26T23:59:20.797Z,97248.97
